createdAt,value
2022-11-21T00:01:21.445Z,38.90
2022-11-21T00:03:49.081Z,39.60
2022-11-21T00:06:17.328Z,40.87
2022-11-21T00:08:45.074Z,42.60
2022-11-21T00:11:12.725Z,37.13
2022-11-21T00:13:40.749Z,43.23
2022-11-21T00:16:12.562Z,38.30
2022-11-21T00:18:39.900Z,41.60
2022-11-21T00:21:11.371Z,38.70
2022-11-21T00:23:38.368Z,38.07
2022-11-21T00:26:07.143Z,39.80
2022-11-21T00:28:35.369Z,38.70
2022-11-21T00:31:03.689Z,41.13
2022-11-21T00:33:30.885Z,38.37
2022-11-21T00:35:58.001Z,41.63
2022-11-21T00:38:24.907Z,39.60
2022-11-21T00:40:51.914Z,39.50
2022-11-21T00:43:18.805Z,38.70
2022-11-21T00:45:45.789Z,37.80
2022-11-21T00:48:12.732Z,41.07
2022-11-21T00:50:39.679Z,36.17
2022-11-21T00:53:06.625Z,37.93
2022-11-21T00:55:33.534Z,36.97
2022-11-21T00:58:00.457Z,38.80
2022-11-21T01:00:27.458Z,39.50
2022-11-21T01:02:54.447Z,41.93
2022-11-21T01:05:21.435Z,41.47
2022-11-21T01:07:51.550Z,42.73
2022-11-21T01:10:18.710Z,40.30
2022-11-21T01:12:45.754Z,40.90
2022-11-21T01:15:12.743Z,40.17
2022-11-21T01:17:39.689Z,40.27
2022-11-21T01:20:07.685Z,40.87
2022-11-21T01:22:34.654Z,39.43
2022-11-21T01:25:01.601Z,40.60
2022-11-21T01:27:28.529Z,39.37
2022-11-21T01:29:55.474Z,37.70
2022-11-21T01:32:22.376Z,41.27
2022-11-21T01:34:49.321Z,39.30
2022-11-21T01:37:16.266Z,40.80
2022-11-21T01:39:43.162Z,40.33
2022-11-21T01:42:13.061Z,40.20
2022-11-21T01:44:54.463Z,39.60
2022-11-21T01:47:22.855Z,40.10
2022-11-21T01:49:52.325Z,40.57
2022-11-21T01:52:30.462Z,41.83
2022-11-21T01:55:07.108Z,39.93
2022-11-21T01:57:44.179Z,41.13
2022-11-21T02:00:23.217Z,39.57
2022-11-21T02:02:56.900Z,42.80
2022-11-21T02:05:30.583Z,41.30
2022-11-21T02:08:14.618Z,40.43
2022-11-21T02:11:04.124Z,39.67
2022-11-21T02:13:31.114Z,41.80
2022-11-21T02:15:58.665Z,41.37
2022-11-21T02:18:25.577Z,43.37
2022-11-21T02:21:05.279Z,41.77
2022-11-21T02:24:03.818Z,40.60
2022-11-21T02:26:31.206Z,39.97
2022-11-21T02:28:58.641Z,39.73
2022-11-21T02:31:55.646Z,42.00
2022-11-21T02:38:03.131Z,41.67
2022-11-21T02:42:05.097Z,41.33
2022-11-21T03:30:45.106Z,42.20
2022-11-21T04:24:41.666Z,40.37
2022-11-21T04:42:01.995Z,41.50
2022-11-21T04:49:19.852Z,39.57
2022-11-21T04:53:21.500Z,43.00
2022-11-21T04:59:17.490Z,41.73
2022-11-21T05:02:24.057Z,40.93
2022-11-21T05:06:41.354Z,42.80
2022-11-21T05:08:22.360Z,40.80
2022-11-21T05:11:27.520Z,39.97
2022-11-21T05:14:04.951Z,40.50
2022-11-21T05:17:08.002Z,40.40
2022-11-21T05:19:41.555Z,43.50
2022-11-21T05:22:26.311Z,39.67
2022-11-21T05:25:07.445Z,40.13
2022-11-21T05:27:57.315Z,41.23
2022-11-21T05:31:40.099Z,40.07
2022-11-21T05:33:56.700Z,40.37
2022-11-21T05:36:37.933Z,38.97
2022-11-21T05:43:08.064Z,40.00
2022-11-21T05:52:55.278Z,39.37
2022-11-21T05:56:47.241Z,40.13
2022-11-21T06:02:20.773Z,40.73
2022-11-21T06:08:34.667Z,42.03
2022-11-21T06:18:27.341Z,44.03
2022-11-21T06:25:37.421Z,42.57
2022-11-21T06:30:11.034Z,40.03
2022-11-21T06:32:01.686Z,42.27
2022-11-21T06:35:55.619Z,38.40
2022-11-21T06:38:35.052Z,40.27
2022-11-21T06:41:52.981Z,42.70
2022-11-21T06:45:11.742Z,42.30
2022-11-21T06:52:18.350Z,42.43
2022-11-21T06:55:12.941Z,40.33
2022-11-21T06:58:26.896Z,38.83
2022-11-21T07:01:17.224Z,40.57
2022-11-21T07:04:40.760Z,38.77
2022-11-21T07:08:25.332Z,38.67
2022-11-21T07:11:29.564Z,39.30
2022-11-21T07:14:28.719Z,39.80
2022-11-21T07:17:12.982Z,38.37
2022-11-21T07:19:51.938Z,38.20
2022-11-21T07:22:55.911Z,35.77
2022-11-21T07:26:30.642Z,36.33
2022-11-21T07:30:12.071Z,35.73
2022-11-21T07:32:50.814Z,36.50
2022-11-21T07:38:33.761Z,35.47
2022-11-21T07:41:23.688Z,33.63
2022-11-21T07:44:51.160Z,35.77
2022-11-21T08:11:15.519Z,33.70
2022-11-21T08:23:35.973Z,32.17
2022-11-21T08:26:31.583Z,31.43
2022-11-21T08:29:38.159Z,32.50
2022-11-21T08:33:08.240Z,32.30
2022-11-21T08:37:02.180Z,29.90
2022-11-21T10:04:06.264Z,31.27
2022-11-21T10:07:04.021Z,34.23
2022-11-21T10:10:20.970Z,33.30
2022-11-21T10:13:15.236Z,29.77
2022-11-21T10:16:18.771Z,31.50
2022-11-21T10:19:29.879Z,31.53
2022-11-21T10:22:23.665Z,29.97
2022-11-21T10:25:03.225Z,32.47
2022-11-21T10:28:10.998Z,30.17
2022-11-21T10:30:44.224Z,32.43
2022-11-21T10:33:36.358Z,30.73
2022-11-21T10:36:33.661Z,28.17
2022-11-21T10:39:14.668Z,26.97
2022-11-21T10:41:54.370Z,28.70
2022-11-21T10:44:50.551Z,27.87
2022-11-21T10:47:27.925Z,27.10
2022-11-21T10:50:20.641Z,31.13
2022-11-21T10:53:25.349Z,32.67
2022-11-21T10:56:17.610Z,29.63
2022-11-21T10:58:49.964Z,29.20
2022-11-21T11:01:31.702Z,28.47
2022-11-21T11:04:26.683Z,29.57
2022-11-21T11:06:54.540Z,27.47
2022-11-21T11:09:30.266Z,26.83
2022-11-21T11:12:50.993Z,25.47
2022-11-21T11:15:26.764Z,26.63
2022-11-21T11:18:02.734Z,25.47
2022-11-21T11:20:41.434Z,26.27
2022-11-21T11:23:20.645Z,25.80
2022-11-21T11:25:51.047Z,24.40
2022-11-21T11:28:19.379Z,25.47
2022-11-21T11:30:49.069Z,24.03
2022-11-21T11:33:37.070Z,24.77
2022-11-21T11:36:33.988Z,25.00
2022-11-21T11:39:09.403Z,24.43
2022-11-21T11:42:45.126Z,25.23
2022-11-21T11:45:30.279Z,24.30
2022-11-21T11:48:19.847Z,24.10
2022-11-21T11:51:04.490Z,24.33
2022-11-21T11:53:44.885Z,23.73
2022-11-21T11:56:43.743Z,26.17
2022-11-21T11:59:18.889Z,25.13
2022-11-21T12:02:11.642Z,27.83
2022-11-21T12:04:50.976Z,25.37
2022-11-21T12:08:33.082Z,24.93
2022-11-21T12:10:28.672Z,23.80
2022-11-21T12:13:16.382Z,24.13
2022-11-21T12:15:52.626Z,23.97
2022-11-21T12:18:19.582Z,24.37
2022-11-21T12:21:15.364Z,26.60
2022-11-21T12:23:55.942Z,24.93
2022-11-21T12:27:10.940Z,23.87
2022-11-21T12:30:16.073Z,26.53
2022-11-21T12:33:17.646Z,25.60
2022-11-21T12:36:16.269Z,25.23
2022-11-21T12:39:03.375Z,24.80
2022-11-21T12:42:20.226Z,25.00
2022-11-21T12:45:43.033Z,25.07
2022-11-21T12:48:44.094Z,24.53
2022-11-21T12:51:38.922Z,25.33
2022-11-21T12:54:40.957Z,26.53
2022-11-21T12:57:11.767Z,25.23
2022-11-21T13:00:12.322Z,26.27
2022-11-21T13:03:04.003Z,24.27
2022-11-21T13:05:40.766Z,23.33
2022-11-21T13:08:24.730Z,24.30
2022-11-21T13:11:31.136Z,23.23
2022-11-21T13:14:27.374Z,24.20
2022-11-21T13:17:26.355Z,25.23
2022-11-21T13:20:02.303Z,23.77
2022-11-21T13:22:38.115Z,23.50
2022-11-21T13:25:39.587Z,24.23
2022-11-21T13:28:18.769Z,24.13
2022-11-21T13:30:56.789Z,24.40
2022-11-21T13:33:36.044Z,23.93
2022-11-21T13:36:12.054Z,23.80
2022-11-21T13:38:53.969Z,25.33
2022-11-21T13:41:54.747Z,23.30
2022-11-21T13:44:30.698Z,24.93
2022-11-21T13:47:15.047Z,24.50
2022-11-21T13:50:04.692Z,24.27
2022-11-21T13:52:43.951Z,25.17
2022-11-21T13:56:06.238Z,26.03
2022-11-21T13:58:53.853Z,25.20
2022-11-21T14:01:36.166Z,26.87
2022-11-21T14:04:44.831Z,25.70
2022-11-21T14:07:34.029Z,24.90
2022-11-21T14:10:26.737Z,26.57
2022-11-21T14:12:56.063Z,27.87
2022-11-21T14:16:16.483Z,28.17
2022-11-21T14:18:47.179Z,24.60
2022-11-21T14:21:29.796Z,24.70
2022-11-21T14:24:00.222Z,25.07
2022-11-21T14:26:31.098Z,25.80
2022-11-21T14:29:28.164Z,24.93
2022-11-21T14:31:56.078Z,26.07
2022-11-21T14:34:29.014Z,25.10
2022-11-21T14:37:00.550Z,25.03
2022-11-21T14:39:38.091Z,26.80
2022-11-21T14:42:16.409Z,27.43
2022-11-21T14:44:44.135Z,25.33
2022-11-21T14:47:26.211Z,27.87
2022-11-21T14:50:00.943Z,26.33
2022-11-21T14:52:33.990Z,26.60
2022-11-21T14:55:28.967Z,27.03
2022-11-21T14:57:55.890Z,27.30
2022-11-21T15:00:58.076Z,29.77
2022-11-21T15:03:21.596Z,30.93
2022-11-21T15:06:07.268Z,32.77
2022-11-21T15:11:37.293Z,37.80
2022-11-21T15:14:17.744Z,37.33
2022-11-21T15:16:52.959Z,35.53
2022-11-21T15:19:32.670Z,38.13
2022-11-21T15:22:04.731Z,37.87
2022-11-21T15:24:43.374Z,34.70
2022-11-21T15:27:28.695Z,37.17
2022-11-21T15:30:12.409Z,36.07
2022-11-21T15:34:12.229Z,36.20
2022-11-21T15:36:37.447Z,34.57
2022-11-21T15:39:07.236Z,33.53
2022-11-21T15:41:36.513Z,35.13
2022-11-21T15:44:03.363Z,32.77
2022-11-21T15:46:33.478Z,35.87
2022-11-21T15:49:30.863Z,34.77
2022-11-21T15:52:09.938Z,34.37
2022-11-21T15:54:37.263Z,34.77
2022-11-21T15:57:04.209Z,32.43
2022-11-21T15:59:31.778Z,33.43
2022-11-21T16:01:58.907Z,36.37
2022-11-21T16:04:26.375Z,37.17
2022-11-21T16:06:56.436Z,34.87
2022-11-21T16:09:23.405Z,33.13
2022-11-21T16:11:50.414Z,36.60
2022-11-21T16:14:20.787Z,33.87
2022-11-21T16:16:47.956Z,33.83
2022-11-21T16:19:15.751Z,35.63
2022-11-21T16:21:43.299Z,35.77
2022-11-21T16:24:10.399Z,33.17
2022-11-21T16:26:37.451Z,34.80
2022-11-21T16:29:07.449Z,35.57
2022-11-21T16:31:34.785Z,35.37
2022-11-21T16:34:01.917Z,31.73
2022-11-21T16:36:31.185Z,34.77
2022-11-21T16:39:05.229Z,34.20
2022-11-21T16:41:35.353Z,31.97
2022-11-21T16:44:02.403Z,33.27
2022-11-21T16:46:29.357Z,36.70
2022-11-21T16:49:02.197Z,33.43
2022-11-21T16:51:30.279Z,33.27
2022-11-21T16:54:00.560Z,33.13
2022-11-21T16:56:28.810Z,32.97
2022-11-21T16:58:56.222Z,31.97
2022-11-21T17:01:26.183Z,33.87
2022-11-21T17:03:53.360Z,35.40
2022-11-21T17:06:28.451Z,35.03
2022-11-21T17:08:55.743Z,35.57
2022-11-21T17:11:28.249Z,33.83
2022-11-21T17:13:58.628Z,34.07
2022-11-21T17:16:25.694Z,34.07
2022-11-21T17:18:58.166Z,33.23
2022-11-21T17:21:26.318Z,33.90
2022-11-21T17:23:53.697Z,32.63
2022-11-21T17:26:24.138Z,32.40
2022-11-21T17:28:56.203Z,34.13
2022-11-21T17:31:23.611Z,31.50
2022-11-21T17:33:51.707Z,34.20
2022-11-21T17:36:21.697Z,33.47
2022-11-21T17:38:49.276Z,32.27
2022-11-21T17:41:18.597Z,36.73
2022-11-21T17:43:47.178Z,33.77
2022-11-21T17:46:20.038Z,34.63
2022-11-21T17:48:54.897Z,32.30
2022-11-21T17:51:29.338Z,32.43
2022-11-21T17:53:57.154Z,31.70
2022-11-21T17:56:28.867Z,34.40
2022-11-21T17:58:56.433Z,33.00
2022-11-21T18:01:23.745Z,32.03
2022-11-21T18:04:10.130Z,30.63
2022-11-21T18:06:40.641Z,33.50
2022-11-21T18:09:10.870Z,28.87
2022-11-21T18:11:40.299Z,32.63
2022-11-21T18:14:10.058Z,34.33
2022-11-21T18:16:39.524Z,32.70
2022-11-21T18:19:07.589Z,33.93
2022-11-21T18:21:38.197Z,33.10
2022-11-21T18:24:05.590Z,33.43
2022-11-21T18:26:37.004Z,31.63
2022-11-21T18:31:54.593Z,33.77
2022-11-21T18:34:21.535Z,32.00
2022-11-21T18:36:48.461Z,33.77
2022-11-21T18:39:26.327Z,34.63
2022-11-21T18:41:53.364Z,32.67
2022-11-21T18:44:22.340Z,32.27
2022-11-21T18:46:49.801Z,34.47
2022-11-21T18:49:16.833Z,31.20
2022-11-21T18:51:44.189Z,33.07
2022-11-21T18:54:11.681Z,30.43
2022-11-21T18:56:39.875Z,30.47
2022-11-21T18:59:07.593Z,31.90
2022-11-21T19:01:37.089Z,30.63
2022-11-21T19:04:04.935Z,30.23
2022-11-21T19:06:32.548Z,31.20
2022-11-21T19:08:59.716Z,29.60
2022-11-21T19:11:29.188Z,31.50
2022-11-21T19:13:58.057Z,32.07
2022-11-21T19:16:27.455Z,32.30
2022-11-21T19:21:42.581Z,31.87
2022-11-21T19:24:14.661Z,31.67
2022-11-21T19:26:42.956Z,31.07
2022-11-21T19:29:10.761Z,30.80
2022-11-21T19:31:44.701Z,28.77
2022-11-21T19:34:16.708Z,30.53
2022-11-21T19:36:44.965Z,29.50
2022-11-21T19:39:12.709Z,27.63
2022-11-21T19:41:39.760Z,31.20
2022-11-21T19:44:06.731Z,28.50
2022-11-21T19:46:38.151Z,29.57
2022-11-21T19:49:06.695Z,30.13
2022-11-21T19:51:41.105Z,28.83
2022-11-21T19:54:11.119Z,29.53
2022-11-21T19:56:38.192Z,31.70
2022-11-21T19:59:05.649Z,30.17
2022-11-21T20:01:34.865Z,31.63
2022-11-21T20:04:04.245Z,31.97
2022-11-21T20:06:41.365Z,29.63
2022-11-21T20:09:10.964Z,28.00
2022-11-21T20:11:40.963Z,29.90
2022-11-21T20:14:08.943Z,29.37
2022-11-21T20:16:39.571Z,31.53
2022-11-21T20:19:10.544Z,31.43
2022-11-21T20:21:38.998Z,30.47
2022-11-21T20:24:07.422Z,31.90
2022-11-21T20:26:35.726Z,28.13
2022-11-21T20:29:04.187Z,30.43
2022-11-21T20:31:37.300Z,31.80
2022-11-21T20:34:13.558Z,29.27
2022-11-21T20:36:41.607Z,30.77
2022-11-21T20:39:16.939Z,31.87
2022-11-21T20:41:45.762Z,29.90
2022-11-21T20:45:25.736Z,30.40
2022-11-21T20:47:07.469Z,29.40
2022-11-21T20:49:34.971Z,31.20
2022-11-21T20:54:48.879Z,33.03
2022-11-21T20:57:15.932Z,32.73
2022-11-21T20:59:43.276Z,32.33
2022-11-21T21:02:14.348Z,34.37
2022-11-21T21:04:42.272Z,29.60
2022-11-21T21:07:09.732Z,31.80
2022-11-21T21:09:36.774Z,34.00
2022-11-21T21:12:05.099Z,29.70
2022-11-21T21:14:32.073Z,33.33
2022-11-21T21:16:59.002Z,32.03
2022-11-21T21:19:26.002Z,32.17
2022-11-21T21:21:52.942Z,31.90
2022-11-21T21:24:20.030Z,33.63
2022-11-21T21:26:49.001Z,32.97
2022-11-21T21:29:19.747Z,33.77
2022-11-21T21:31:51.497Z,35.60
2022-11-21T21:34:21.181Z,32.00
2022-11-21T21:36:49.011Z,34.27
2022-11-21T21:39:15.975Z,32.23
2022-11-21T21:41:46.804Z,33.33
2022-11-21T21:44:14.920Z,31.73
2022-11-21T21:46:42.155Z,32.60
2022-11-21T21:49:09.127Z,34.37
2022-11-21T21:51:37.470Z,32.77
2022-11-21T21:54:05.131Z,33.77
2022-11-21T21:56:32.662Z,32.27
2022-11-21T21:59:00.043Z,30.17
2022-11-21T22:01:32.256Z,30.60
2022-11-21T22:04:02.673Z,30.17
2022-11-21T22:06:32.836Z,31.20
2022-11-21T22:08:59.769Z,29.87
2022-11-21T22:11:33.008Z,31.27
2022-11-21T22:14:03.969Z,29.97
2022-11-21T22:16:31.780Z,29.00
2022-11-21T22:18:59.189Z,30.03
2022-11-21T22:21:32.998Z,30.33
2022-11-21T22:24:24.696Z,31.93
2022-11-21T22:26:52.338Z,29.93
2022-11-21T22:29:19.313Z,30.83
2022-11-21T22:31:46.403Z,31.07
2022-11-21T22:34:14.272Z,30.97
2022-11-21T22:36:41.762Z,28.47
2022-11-21T22:39:09.140Z,31.33
2022-11-21T22:41:36.194Z,29.30
2022-11-21T22:44:03.359Z,29.17
2022-11-21T22:46:31.344Z,28.43
2022-11-21T22:48:59.334Z,29.63
2022-11-21T22:51:29.696Z,30.53
2022-11-21T22:53:57.519Z,30.60
2022-11-21T22:56:25.758Z,29.87
2022-11-21T22:58:53.154Z,30.60
2022-11-21T23:01:23.587Z,29.10
2022-11-21T23:03:51.327Z,32.27
2022-11-21T23:06:21.973Z,30.37
2022-11-21T23:08:49.751Z,29.57
2022-11-21T23:11:22.723Z,29.77
2022-11-21T23:13:50.536Z,28.33
2022-11-21T23:16:18.597Z,31.03
2022-11-21T23:18:45.933Z,28.90
2022-11-21T23:21:14.201Z,28.23
2022-11-21T23:23:41.463Z,31.27
2022-11-21T23:26:08.413Z,28.00
2022-11-21T23:28:35.309Z,30.00
2022-11-21T23:31:02.686Z,28.30
2022-11-21T23:33:29.751Z,29.30
2022-11-21T23:35:56.775Z,27.73
2022-11-21T23:38:23.911Z,30.20
2022-11-21T23:40:50.992Z,31.30
2022-11-21T23:43:18.984Z,28.90
2022-11-21T23:45:51.621Z,28.73
2022-11-21T23:48:19.788Z,29.73
2022-11-21T23:50:48.152Z,26.87
2022-11-21T23:53:15.203Z,27.43
2022-11-21T23:55:43.877Z,28.70
2022-11-21T23:58:12.949Z,29.93
